sensor_id;sensor_type;location;lat;lon;timestamp;P1;durP1;ratioP1;P2;durP2;ratioP2
16093;SDS011;8151;47.824;12.092;2022-11-22T00:01:20;2.43;;;2.20;;
16093;SDS011;8151;47.824;12.092;2022-11-22T00:03:48;3.53;;;2.90;;
16093;SDS011;8151;47.824;12.092;2022-11-22T00:06:16;3.20;;;2.43;;
16093;SDS011;8151;47.824;12.092;2022-11-22T00:08:45;4.70;;;2.50;;
16093;SDS011;8151;47.824;12.092;2022-11-22T00:11:14;3.03;;;2.60;;
16093;SDS011;8151;47.824;12.092;2022-11-22T00:13:42;3.10;;;2.73;;
16093;SDS011;8151;47.824;12.092;2022-11-22T00:16:12;2.83;;;2.60;;
16093;SDS011;8151;47.824;12.092;2022-11-22T00:18:40;3.63;;;2.80;;
16093;SDS011;8151;47.824;12.092;2022-11-22T00:21:08;5.90;;;2.77;;
16093;SDS011;8151;47.824;12.092;2022-11-22T00:23:37;4.90;;;3.03;;
16093;SDS011;8151;47.824;12.092;2022-11-22T00:26:05;3.57;;;3.07;;
16093;SDS011;8151;47.824;12.092;2022-11-22T00:28:37;3.17;;;2.83;;
16093;SDS011;8151;47.824;12.092;2022-11-22T00:31:06;3.50;;;3.00;;
16093;SDS011;8151;47.824;12.092;2022-11-22T00:33:35;4.37;;;2.83;;
16093;SDS011;8151;47.824;12.092;2022-11-22T00:36:04;3.00;;;2.70;;
16093;SDS011;8151;47.824;12.092;2022-11-22T00:38:32;5.27;;;3.30;;
16093;SDS011;8151;47.824;12.092;2022-11-22T00:41:00;5.57;;;3.40;;
16093;SDS011;8151;47.824;12.092;2022-11-22T00:43:29;3.97;;;3.07;;
16093;SDS011;8151;47.824;12.092;2022-11-22T00:45:58;3.40;;;3.10;;
16093;SDS011;8151;47.824;12.092;2022-11-22T00:48:26;3.70;;;2.80;;
16093;SDS011;8151;47.824;12.092;2022-11-22T00:50:56;4.27;;;3.23;;
16093;SDS011;8151;47.824;12.092;2022-11-22T00:53:25;3.20;;;2.90;;
16093;SDS011;8151;47.824;12.092;2022-11-22T00:55:53;5.67;;;3.33;;
16093;SDS011;8151;47.824;12.092;2022-11-22T00:58:22;3.80;;;3.23;;
16093;SDS011;8151;47.824;12.092;2022-11-22T01:00:50;4.87;;;3.53;;
16093;SDS011;8151;47.824;12.092;2022-11-22T01:03:22;3.27;;;2.97;;
16093;SDS011;8151;47.824;12.092;2022-11-22T01:05:51;3.47;;;2.90;;
16093;SDS011;8151;47.824;12.092;2022-11-22T01:08:21;3.53;;;2.70;;
16093;SDS011;8151;47.824;12.092;2022-11-22T01:10:53;5.07;;;3.20;;
16093;SDS011;8151;47.824;12.092;2022-11-22T01:13:23;4.53;;;3.20;;
16093;SDS011;8151;47.824;12.092;2022-11-22T01:15:51;5.73;;;3.00;;
16093;SDS011;8151;47.824;12.092;2022-11-22T01:18:19;4.30;;;2.80;;
16093;SDS011;8151;47.824;12.092;2022-11-22T01:20:48;3.40;;;2.90;;
16093;SDS011;8151;47.824;12.092;2022-11-22T01:23:16;4.53;;;3.00;;
16093;SDS011;8151;47.824;12.092;2022-11-22T01:25:46;3.77;;;2.90;;
16093;SDS011;8151;47.824;12.092;2022-11-22T01:28:14;2.60;;;2.33;;
16093;SDS011;8151;47.824;12.092;2022-11-22T01:30:43;4.10;;;2.80;;
16093;SDS011;8151;47.824;12.092;2022-11-22T01:33:11;3.60;;;3.00;;
16093;SDS011;8151;47.824;12.092;2022-11-22T01:35:40;2.60;;;2.40;;
16093;SDS011;8151;47.824;12.092;2022-11-22T01:38:08;2.93;;;2.63;;
16093;SDS011;8151;47.824;12.092;2022-11-22T01:40:37;3.47;;;2.63;;
16093;SDS011;8151;47.824;12.092;2022-11-22T01:43:09;2.50;;;2.30;;
16093;SDS011;8151;47.824;12.092;2022-11-22T01:45:45;6.67;;;2.50;;
16093;SDS011;8151;47.824;12.092;2022-11-22T01:48:17;2.57;;;2.30;;
16093;SDS011;8151;47.824;12.092;2022-11-22T01:50:53;4.17;;;3.00;;
16093;SDS011;8151;47.824;12.092;2022-11-22T01:53:27;4.60;;;2.67;;
16093;SDS011;8151;47.824;12.092;2022-11-22T01:55:58;2.63;;;2.37;;
16093;SDS011;8151;47.824;12.092;2022-11-22T01:58:29;4.00;;;2.57;;
16093;SDS011;8151;47.824;12.092;2022-11-22T02:01:00;6.20;;;3.03;;
16093;SDS011;8151;47.824;12.092;2022-11-22T02:03:29;4.83;;;2.67;;
16093;SDS011;8151;47.824;12.092;2022-11-22T02:06:00;2.90;;;2.50;;
16093;SDS011;8151;47.824;12.092;2022-11-22T02:08:30;3.53;;;2.57;;
16093;SDS011;8151;47.824;12.092;2022-11-22T02:11:04;4.00;;;2.90;;
16093;SDS011;8151;47.824;12.092;2022-11-22T02:13:38;3.50;;;2.40;;
16093;SDS011;8151;47.824;12.092;2022-11-22T02:16:09;2.87;;;2.50;;
16093;SDS011;8151;47.824;12.092;2022-11-22T02:18:38;2.90;;;2.37;;
16093;SDS011;8151;47.824;12.092;2022-11-22T02:21:07;2.60;;;2.40;;
16093;SDS011;8151;47.824;12.092;2022-11-22T02:23:39;3.37;;;2.73;;
16093;SDS011;8151;47.824;12.092;2022-11-22T02:26:18;5.40;;;2.63;;
16093;SDS011;8151;47.824;12.092;2022-11-22T02:28:47;4.30;;;2.80;;
16093;SDS011;8151;47.824;12.092;2022-11-22T02:31:34;3.33;;;2.60;;
16093;SDS011;8151;47.824;12.092;2022-11-22T02:34:05;2.47;;;2.27;;
16093;SDS011;8151;47.824;12.092;2022-11-22T02:36:34;3.73;;;2.53;;
16093;SDS011;8151;47.824;12.092;2022-11-22T02:39:06;3.17;;;2.43;;
16093;SDS011;8151;47.824;12.092;2022-11-22T02:41:40;3.03;;;2.60;;
16093;SDS011;8151;47.824;12.092;2022-11-22T02:44:09;3.43;;;2.60;;
16093;SDS011;8151;47.824;12.092;2022-11-22T02:46:45;3.53;;;2.70;;
16093;SDS011;8151;47.824;12.092;2022-11-22T02:49:15;2.90;;;2.60;;
16093;SDS011;8151;47.824;12.092;2022-11-22T02:51:45;3.53;;;2.87;;
16093;SDS011;8151;47.824;12.092;2022-11-22T02:54:14;3.63;;;3.00;;
16093;SDS011;8151;47.824;12.092;2022-11-22T02:56:44;5.27;;;2.93;;
16093;SDS011;8151;47.824;12.092;2022-11-22T02:59:13;3.40;;;2.83;;
16093;SDS011;8151;47.824;12.092;2022-11-22T03:01:41;2.80;;;2.50;;
16093;SDS011;8151;47.824;12.092;2022-11-22T03:04:11;3.43;;;2.90;;
16093;SDS011;8151;47.824;12.092;2022-11-22T03:06:51;3.73;;;3.20;;
16093;SDS011;8151;47.824;12.092;2022-11-22T03:09:21;3.43;;;3.07;;
16093;SDS011;8151;47.824;12.092;2022-11-22T03:11:52;3.70;;;3.23;;
16093;SDS011;8151;47.824;12.092;2022-11-22T03:14:21;3.70;;;3.20;;
16093;SDS011;8151;47.824;12.092;2022-11-22T03:16:50;3.60;;;3.10;;
16093;SDS011;8151;47.824;12.092;2022-11-22T03:19:18;4.93;;;3.00;;
16093;SDS011;8151;47.824;12.092;2022-11-22T03:21:47;3.90;;;3.00;;
16093;SDS011;8151;47.824;12.092;2022-11-22T03:24:17;3.30;;;3.00;;
16093;SDS011;8151;47.824;12.092;2022-11-22T03:26:46;3.57;;;2.80;;
16093;SDS011;8151;47.824;12.092;2022-11-22T03:29:17;4.70;;;3.17;;
16093;SDS011;8151;47.824;12.092;2022-11-22T03:31:45;4.57;;;3.40;;
16093;SDS011;8151;47.824;12.092;2022-11-22T03:34:14;4.57;;;2.90;;
16093;SDS011;8151;47.824;12.092;2022-11-22T03:36:43;3.17;;;2.77;;
16093;SDS011;8151;47.824;12.092;2022-11-22T03:39:11;3.10;;;2.70;;
16093;SDS011;8151;47.824;12.092;2022-11-22T03:41:39;4.50;;;2.60;;
16093;SDS011;8151;47.824;12.092;2022-11-22T03:44:08;3.80;;;2.30;;
16093;SDS011;8151;47.824;12.092;2022-11-22T03:46:37;2.63;;;2.40;;
16093;SDS011;8151;47.824;12.092;2022-11-22T03:49:06;3.03;;;2.23;;
16093;SDS011;8151;47.824;12.092;2022-11-22T03:51:34;2.90;;;2.60;;
16093;SDS011;8151;47.824;12.092;2022-11-22T03:54:02;3.33;;;2.30;;
16093;SDS011;8151;47.824;12.092;2022-11-22T03:56:31;2.60;;;2.20;;
16093;SDS011;8151;47.824;12.092;2022-11-22T03:58:59;3.97;;;2.60;;
16093;SDS011;8151;47.824;12.092;2022-11-22T04:01:28;5.13;;;2.50;;
16093;SDS011;8151;47.824;12.092;2022-11-22T04:03:58;2.73;;;2.47;;
16093;SDS011;8151;47.824;12.092;2022-11-22T04:06:26;2.73;;;2.47;;
16093;SDS011;8151;47.824;12.092;2022-11-22T04:08:54;3.50;;;2.63;;
16093;SDS011;8151;47.824;12.092;2022-11-22T04:11:23;3.30;;;2.40;;
16093;SDS011;8151;47.824;12.092;2022-11-22T04:15:02;3.50;;;2.27;;
16093;SDS011;8151;47.824;12.092;2022-11-22T04:17:35;3.00;;;2.43;;
16093;SDS011;8151;47.824;12.092;2022-11-22T04:20:09;2.93;;;2.53;;
16093;SDS011;8151;47.824;12.092;2022-11-22T04:22:58;2.50;;;2.30;;
16093;SDS011;8151;47.824;12.092;2022-11-22T04:25:28;3.70;;;2.50;;
16093;SDS011;8151;47.824;12.092;2022-11-22T04:27:56;4.17;;;2.30;;
16093;SDS011;8151;47.824;12.092;2022-11-22T04:30:27;2.87;;;2.50;;
16093;SDS011;8151;47.824;12.092;2022-11-22T04:33:10;3.53;;;2.33;;
16093;SDS011;8151;47.824;12.092;2022-11-22T04:35:40;2.60;;;2.40;;
16093;SDS011;8151;47.824;12.092;2022-11-22T04:38:09;2.90;;;2.60;;
16093;SDS011;8151;47.824;12.092;2022-11-22T04:40:38;2.97;;;2.43;;
16093;SDS011;8151;47.824;12.092;2022-11-22T04:43:08;3.43;;;2.90;;
16093;SDS011;8151;47.824;12.092;2022-11-22T04:46:01;2.90;;;2.43;;
16093;SDS011;8151;47.824;12.092;2022-11-22T04:48:29;4.37;;;3.00;;
16093;SDS011;8151;47.824;12.092;2022-11-22T04:50:59;2.97;;;2.47;;
16093;SDS011;8151;47.824;12.092;2022-11-22T04:53:45;2.30;;;2.10;;
16093;SDS011;8151;47.824;12.092;2022-11-22T04:56:14;3.10;;;2.50;;
16093;SDS011;8151;47.824;12.092;2022-11-22T04:58:42;2.93;;;2.50;;
16093;SDS011;8151;47.824;12.092;2022-11-22T05:01:11;3.67;;;2.83;;
16093;SDS011;8151;47.824;12.092;2022-11-22T05:03:39;2.93;;;2.73;;
16093;SDS011;8151;47.824;12.092;2022-11-22T05:06:10;3.17;;;2.87;;
16093;SDS011;8151;47.824;12.092;2022-11-22T05:08:40;4.93;;;3.80;;
16093;SDS011;8151;47.824;12.092;2022-11-22T05:11:08;2.70;;;2.50;;
16093;SDS011;8151;47.824;12.092;2022-11-22T05:13:37;2.47;;;2.27;;
16093;SDS011;8151;47.824;12.092;2022-11-22T05:16:08;3.77;;;2.77;;
16093;SDS011;8151;47.824;12.092;2022-11-22T05:18:38;3.03;;;2.60;;
16093;SDS011;8151;47.824;12.092;2022-11-22T05:21:07;3.00;;;2.70;;
16093;SDS011;8151;47.824;12.092;2022-11-22T05:23:38;3.30;;;2.63;;
16093;SDS011;8151;47.824;12.092;2022-11-22T05:26:22;2.87;;;2.57;;
16093;SDS011;8151;47.824;12.092;2022-11-22T05:28:51;3.50;;;2.70;;
16093;SDS011;8151;47.824;12.092;2022-11-22T05:31:21;2.70;;;2.50;;
16093;SDS011;8151;47.824;12.092;2022-11-22T05:33:50;3.87;;;2.90;;
16093;SDS011;8151;47.824;12.092;2022-11-22T05:36:22;3.60;;;2.50;;
16093;SDS011;8151;47.824;12.092;2022-11-22T05:38:51;2.70;;;2.30;;
16093;SDS011;8151;47.824;12.092;2022-11-22T05:41:20;3.23;;;2.70;;
16093;SDS011;8151;47.824;12.092;2022-11-22T05:43:49;2.77;;;2.43;;
16093;SDS011;8151;47.824;12.092;2022-11-22T05:46:18;3.23;;;2.60;;
16093;SDS011;8151;47.824;12.092;2022-11-22T05:48:51;3.77;;;3.20;;
16093;SDS011;8151;47.824;12.092;2022-11-22T05:51:25;3.73;;;3.23;;
16093;SDS011;8151;47.824;12.092;2022-11-22T05:54:00;3.50;;;2.87;;
16093;SDS011;8151;47.824;12.092;2022-11-22T05:56:29;3.27;;;2.80;;
16093;SDS011;8151;47.824;12.092;2022-11-22T05:58:57;3.63;;;2.77;;
16093;SDS011;8151;47.824;12.092;2022-11-22T06:01:26;4.00;;;3.17;;
16093;SDS011;8151;47.824;12.092;2022-11-22T06:03:54;3.60;;;2.77;;
16093;SDS011;8151;47.824;12.092;2022-11-22T06:06:24;4.83;;;3.17;;
16093;SDS011;8151;47.824;12.092;2022-11-22T06:08:52;3.43;;;2.53;;
16093;SDS011;8151;47.824;12.092;2022-11-22T06:11:21;4.43;;;2.87;;
16093;SDS011;8151;47.824;12.092;2022-11-22T06:13:52;5.43;;;3.10;;
16093;SDS011;8151;47.824;12.092;2022-11-22T06:16:22;4.30;;;3.13;;
16093;SDS011;8151;47.824;12.092;2022-11-22T06:18:51;3.37;;;3.07;;
16093;SDS011;8151;47.824;12.092;2022-11-22T06:21:21;3.70;;;3.10;;
16093;SDS011;8151;47.824;12.092;2022-11-22T06:23:53;3.13;;;2.83;;
16093;SDS011;8151;47.824;12.092;2022-11-22T06:26:22;3.27;;;2.67;;
16093;SDS011;8151;47.824;12.092;2022-11-22T06:28:52;4.00;;;3.03;;
16093;SDS011;8151;47.824;12.092;2022-11-22T06:31:21;4.10;;;2.87;;
16093;SDS011;8151;47.824;12.092;2022-11-22T06:33:51;5.43;;;3.33;;
16093;SDS011;8151;47.824;12.092;2022-11-22T06:36:21;4.03;;;3.30;;
16093;SDS011;8151;47.824;12.092;2022-11-22T06:38:52;3.40;;;2.87;;
16093;SDS011;8151;47.824;12.092;2022-11-22T06:41:21;4.57;;;3.20;;
16093;SDS011;8151;47.824;12.092;2022-11-22T06:43:51;4.10;;;3.07;;
16093;SDS011;8151;47.824;12.092;2022-11-22T06:46:21;3.40;;;3.10;;
16093;SDS011;8151;47.824;12.092;2022-11-22T06:48:50;3.90;;;3.03;;
16093;SDS011;8151;47.824;12.092;2022-11-22T06:51:19;6.70;;;3.63;;
16093;SDS011;8151;47.824;12.092;2022-11-22T06:53:50;4.10;;;3.30;;
16093;SDS011;8151;47.824;12.092;2022-11-22T06:56:21;5.83;;;4.17;;
16093;SDS011;8151;47.824;12.092;2022-11-22T06:58:51;3.90;;;3.40;;
16093;SDS011;8151;47.824;12.092;2022-11-22T07:01:20;7.63;;;4.70;;
16093;SDS011;8151;47.824;12.092;2022-11-22T07:03:50;4.50;;;3.47;;
16093;SDS011;8151;47.824;12.092;2022-11-22T07:06:22;5.80;;;4.20;;
16093;SDS011;8151;47.824;12.092;2022-11-22T07:08:53;5.53;;;4.10;;
16093;SDS011;8151;47.824;12.092;2022-11-22T07:11:22;4.63;;;3.37;;
16093;SDS011;8151;47.824;12.092;2022-11-22T07:13:54;4.83;;;3.60;;
16093;SDS011;8151;47.824;12.092;2022-11-22T07:16:32;6.97;;;4.37;;
16093;SDS011;8151;47.824;12.092;2022-11-22T07:19:01;4.23;;;3.20;;
16093;SDS011;8151;47.824;12.092;2022-11-22T07:21:29;5.00;;;3.40;;
16093;SDS011;8151;47.824;12.092;2022-11-22T07:23:59;7.37;;;5.77;;
16093;SDS011;8151;47.824;12.092;2022-11-22T07:26:27;5.97;;;4.70;;
16093;SDS011;8151;47.824;12.092;2022-11-22T07:28:56;6.87;;;4.10;;
16093;SDS011;8151;47.824;12.092;2022-11-22T07:31:24;4.77;;;4.00;;
16093;SDS011;8151;47.824;12.092;2022-11-22T07:33:54;5.40;;;3.80;;
16093;SDS011;8151;47.824;12.092;2022-11-22T07:36:23;4.80;;;3.60;;
16093;SDS011;8151;47.824;12.092;2022-11-22T07:38:54;4.57;;;3.60;;
16093;SDS011;8151;47.824;12.092;2022-11-22T07:41:24;7.20;;;2.90;;
16093;SDS011;8151;47.824;12.092;2022-11-22T07:43:53;3.87;;;2.87;;
16093;SDS011;8151;47.824;12.092;2022-11-22T07:46:22;5.77;;;3.90;;
16093;SDS011;8151;47.824;12.092;2022-11-22T07:48:52;6.80;;;3.30;;
16093;SDS011;8151;47.824;12.092;2022-11-22T07:51:20;4.63;;;2.83;;
16093;SDS011;8151;47.824;12.092;2022-11-22T07:53:48;5.83;;;3.20;;
16093;SDS011;8151;47.824;12.092;2022-11-22T07:56:17;5.07;;;3.37;;
16093;SDS011;8151;47.824;12.092;2022-11-22T07:58:47;6.70;;;3.60;;
16093;SDS011;8151;47.824;12.092;2022-11-22T08:01:16;4.07;;;2.97;;
16093;SDS011;8151;47.824;12.092;2022-11-22T08:03:45;4.17;;;3.10;;
16093;SDS011;8151;47.824;12.092;2022-11-22T08:06:14;6.70;;;2.73;;
16093;SDS011;8151;47.824;12.092;2022-11-22T08:08:43;10.30;;;2.90;;
16093;SDS011;8151;47.824;12.092;2022-11-22T08:11:11;3.93;;;2.47;;
16093;SDS011;8151;47.824;12.092;2022-11-22T08:13:40;5.53;;;2.53;;
16093;SDS011;8151;47.824;12.092;2022-11-22T08:16:10;4.70;;;2.23;;
16093;SDS011;8151;47.824;12.092;2022-11-22T08:18:41;11.17;;;4.63;;
16093;SDS011;8151;47.824;12.092;2022-11-22T08:21:14;1.87;;;1.60;;
16093;SDS011;8151;47.824;12.092;2022-11-22T08:23:43;1.93;;;1.20;;
16093;SDS011;8151;47.824;12.092;2022-11-22T08:26:14;0.90;;;0.90;;
16093;SDS011;8151;47.824;12.092;2022-11-22T08:28:44;3.50;;;0.90;;
16093;SDS011;8151;47.824;12.092;2022-11-22T08:31:14;1.20;;;0.80;;
16093;SDS011;8151;47.824;12.092;2022-11-22T08:33:45;0.67;;;0.47;;
16093;SDS011;8151;47.824;12.092;2022-11-22T08:36:14;2.50;;;1.00;;
16093;SDS011;8151;47.824;12.092;2022-11-22T08:38:42;1.17;;;0.87;;
16093;SDS011;8151;47.824;12.092;2022-11-22T08:41:11;0.70;;;0.70;;
16093;SDS011;8151;47.824;12.092;2022-11-22T08:43:40;0.90;;;0.70;;
16093;SDS011;8151;47.824;12.092;2022-11-22T08:46:08;1.17;;;0.60;;
16093;SDS011;8151;47.824;12.092;2022-11-22T08:48:38;0.97;;;0.53;;
16093;SDS011;8151;47.824;12.092;2022-11-22T08:51:07;0.60;;;0.60;;
16093;SDS011;8151;47.824;12.092;2022-11-22T08:53:37;1.13;;;0.60;;
16093;SDS011;8151;47.824;12.092;2022-11-22T08:56:07;0.67;;;0.60;;
16093;SDS011;8151;47.824;12.092;2022-11-22T08:58:38;0.77;;;0.73;;
16093;SDS011;8151;47.824;12.092;2022-11-22T09:01:07;0.60;;;0.60;;
16093;SDS011;8151;47.824;12.092;2022-11-22T09:03:40;1.77;;;1.67;;
16093;SDS011;8151;47.824;12.092;2022-11-22T09:06:10;4.77;;;1.80;;
16093;SDS011;8151;47.824;12.092;2022-11-22T09:08:59;1.37;;;1.00;;
16093;SDS011;8151;47.824;12.092;2022-11-22T09:11:47;1.90;;;0.93;;
16093;SDS011;8151;47.824;12.092;2022-11-22T09:14:17;0.87;;;0.83;;
16093;SDS011;8151;47.824;12.092;2022-11-22T09:16:45;2.60;;;0.77;;
16093;SDS011;8151;47.824;12.092;2022-11-22T09:19:15;0.43;;;0.43;;
16093;SDS011;8151;47.824;12.092;2022-11-22T09:21:43;0.47;;;0.30;;
16093;SDS011;8151;47.824;12.092;2022-11-22T09:24:12;1.70;;;0.60;;
16093;SDS011;8151;47.824;12.092;2022-11-22T09:26:40;2.03;;;0.50;;
16093;SDS011;8151;47.824;12.092;2022-11-22T09:29:08;0.50;;;0.50;;
16093;SDS011;8151;47.824;12.092;2022-11-22T09:31:37;7.00;;;4.63;;
16093;SDS011;8151;47.824;12.092;2022-11-22T09:34:05;4.50;;;0.70;;
16093;SDS011;8151;47.824;12.092;2022-11-22T09:36:35;1.00;;;0.80;;
16093;SDS011;8151;47.824;12.092;2022-11-22T09:39:07;1.47;;;0.77;;
16093;SDS011;8151;47.824;12.092;2022-11-22T09:41:43;1.77;;;0.97;;
16093;SDS011;8151;47.824;12.092;2022-11-22T09:44:26;1.90;;;1.10;;
16093;SDS011;8151;47.824;12.092;2022-11-22T09:47:06;0.90;;;0.90;;
16093;SDS011;8151;47.824;12.092;2022-11-22T09:49:40;1.17;;;1.07;;
16093;SDS011;8151;47.824;12.092;2022-11-22T09:52:21;1.03;;;0.80;;
16093;SDS011;8151;47.824;12.092;2022-11-22T09:54:55;1.40;;;1.10;;
16093;SDS011;8151;47.824;12.092;2022-11-22T09:57:27;2.03;;;1.80;;
16093;SDS011;8151;47.824;12.092;2022-11-22T10:00:01;1.20;;;0.70;;
16093;SDS011;8151;47.824;12.092;2022-11-22T10:02:34;0.47;;;0.47;;
16093;SDS011;8151;47.824;12.092;2022-11-22T10:05:27;0.87;;;0.87;;
16093;SDS011;8151;47.824;12.092;2022-11-22T10:08:16;0.80;;;0.80;;
16093;SDS011;8151;47.824;12.092;2022-11-22T10:10:57;3.97;;;2.90;;
16093;SDS011;8151;47.824;12.092;2022-11-22T10:13:28;4.37;;;3.17;;
16093;SDS011;8151;47.824;12.092;2022-11-22T10:16:02;4.70;;;3.03;;
16093;SDS011;8151;47.824;12.092;2022-11-22T10:18:36;4.83;;;3.30;;
16093;SDS011;8151;47.824;12.092;2022-11-22T10:21:08;7.83;;;4.00;;
16093;SDS011;8151;47.824;12.092;2022-11-22T10:23:41;7.50;;;4.40;;
16093;SDS011;8151;47.824;12.092;2022-11-22T10:26:13;7.03;;;4.87;;
16093;SDS011;8151;47.824;12.092;2022-11-22T10:28:51;5.00;;;4.07;;
16093;SDS011;8151;47.824;12.092;2022-11-22T10:31:28;7.80;;;4.43;;
16093;SDS011;8151;47.824;12.092;2022-11-22T10:34:04;5.80;;;4.10;;
16093;SDS011;8151;47.824;12.092;2022-11-22T10:36:41;7.17;;;3.93;;
16093;SDS011;8151;47.824;12.092;2022-11-22T10:39:18;7.30;;;4.10;;
16093;SDS011;8151;47.824;12.092;2022-11-22T10:42:05;3.50;;;3.17;;
16093;SDS011;8151;47.824;12.092;2022-11-22T10:44:59;4.50;;;3.57;;
16093;SDS011;8151;47.824;12.092;2022-11-22T10:47:41;4.07;;;2.77;;
16093;SDS011;8151;47.824;12.092;2022-11-22T10:50:22;4.17;;;3.00;;
16093;SDS011;8151;47.824;12.092;2022-11-22T10:52:58;4.57;;;3.47;;
16093;SDS011;8151;47.824;12.092;2022-11-22T10:55:43;5.27;;;3.27;;
16093;SDS011;8151;47.824;12.092;2022-11-22T10:58:25;3.40;;;2.57;;
16093;SDS011;8151;47.824;12.092;2022-11-22T11:01:03;2.90;;;2.60;;
16093;SDS011;8151;47.824;12.092;2022-11-22T11:03:37;2.97;;;2.63;;
16093;SDS011;8151;47.824;12.092;2022-11-22T11:06:09;2.70;;;2.37;;
16093;SDS011;8151;47.824;12.092;2022-11-22T11:09:04;4.47;;;2.37;;
16093;SDS011;8151;47.824;12.092;2022-11-22T11:11:58;2.80;;;1.97;;
16093;SDS011;8151;47.824;12.092;2022-11-22T11:14:29;3.77;;;2.20;;
16093;SDS011;8151;47.824;12.092;2022-11-22T11:17:03;4.63;;;1.90;;
16093;SDS011;8151;47.824;12.092;2022-11-22T11:19:36;1.90;;;1.67;;
16093;SDS011;8151;47.824;12.092;2022-11-22T11:22:11;1.90;;;1.50;;
16093;SDS011;8151;47.824;12.092;2022-11-22T11:27:56;1.17;;;0.67;;
16093;SDS011;8151;47.824;12.092;2022-11-22T11:30:31;1.43;;;1.10;;
16093;SDS011;8151;47.824;12.092;2022-11-22T11:33:17;1.37;;;0.77;;
16093;SDS011;8151;47.824;12.092;2022-11-22T11:35:56;0.90;;;0.73;;
16093;SDS011;8151;47.824;12.092;2022-11-22T11:38:31;3.20;;;1.23;;
16093;SDS011;8151;47.824;12.092;2022-11-22T11:41:18;0.80;;;0.80;;
16093;SDS011;8151;47.824;12.092;2022-11-22T11:43:50;1.63;;;1.00;;
16093;SDS011;8151;47.824;12.092;2022-11-22T11:46:20;0.87;;;0.67;;
16093;SDS011;8151;47.824;12.092;2022-11-22T11:48:50;3.80;;;2.40;;
16093;SDS011;8151;47.824;12.092;2022-11-22T11:51:20;1.17;;;1.07;;
16093;SDS011;8151;47.824;12.092;2022-11-22T11:53:56;2.93;;;1.73;;
16093;SDS011;8151;47.824;12.092;2022-11-22T11:59:18;3.77;;;2.13;;
16093;SDS011;8151;47.824;12.092;2022-11-22T12:01:49;4.90;;;3.47;;
16093;SDS011;8151;47.824;12.092;2022-11-22T12:04:23;3.30;;;2.30;;
16093;SDS011;8151;47.824;12.092;2022-11-22T12:06:55;1.07;;;0.97;;
16093;SDS011;8151;47.824;12.092;2022-11-22T12:09:35;1.30;;;0.93;;
16093;SDS011;8151;47.824;12.092;2022-11-22T12:12:12;3.50;;;3.20;;
16093;SDS011;8151;47.824;12.092;2022-11-22T12:15:00;10.40;;;6.10;;
16093;SDS011;8151;47.824;12.092;2022-11-22T12:17:46;3.80;;;3.20;;
16093;SDS011;8151;47.824;12.092;2022-11-22T12:20:20;12.70;;;7.93;;
16093;SDS011;8151;47.824;12.092;2022-11-22T12:22:56;5.73;;;3.37;;
16093;SDS011;8151;47.824;12.092;2022-11-22T12:25:33;9.80;;;7.53;;
16093;SDS011;8151;47.824;12.092;2022-11-22T12:28:10;14.07;;;8.03;;
16093;SDS011;8151;47.824;12.092;2022-11-22T12:30:45;13.40;;;8.77;;
16093;SDS011;8151;47.824;12.092;2022-11-22T12:33:21;2.90;;;2.47;;
16093;SDS011;8151;47.824;12.092;2022-11-22T12:35:54;0.53;;;0.43;;
16093;SDS011;8151;47.824;12.092;2022-11-22T12:38:24;1.83;;;1.67;;
16093;SDS011;8151;47.824;12.092;2022-11-22T12:40:59;1.23;;;0.70;;
16093;SDS011;8151;47.824;12.092;2022-11-22T12:43:33;2.17;;;0.70;;
16093;SDS011;8151;47.824;12.092;2022-11-22T12:46:09;0.70;;;0.63;;
16093;SDS011;8151;47.824;12.092;2022-11-22T12:48:41;3.70;;;1.27;;
16093;SDS011;8151;47.824;12.092;2022-11-22T12:51:17;4.70;;;2.97;;
16093;SDS011;8151;47.824;12.092;2022-11-22T12:53:54;3.90;;;2.03;;
16093;SDS011;8151;47.824;12.092;2022-11-22T12:56:27;3.43;;;2.50;;
16093;SDS011;8151;47.824;12.092;2022-11-22T12:59:00;1.90;;;1.17;;
16093;SDS011;8151;47.824;12.092;2022-11-22T13:01:36;2.30;;;1.40;;
16093;SDS011;8151;47.824;12.092;2022-11-22T13:04:12;1.17;;;0.90;;
16093;SDS011;8151;47.824;12.092;2022-11-22T13:06:47;2.97;;;1.43;;
16093;SDS011;8151;47.824;12.092;2022-11-22T13:09:23;1.70;;;1.20;;
16093;SDS011;8151;47.824;12.092;2022-11-22T13:11:59;1.27;;;1.17;;
16093;SDS011;8151;47.824;12.092;2022-11-22T13:14:33;2.37;;;0.93;;
16093;SDS011;8151;47.824;12.092;2022-11-22T13:17:07;0.87;;;0.80;;
16093;SDS011;8151;47.824;12.092;2022-11-22T13:19:38;2.87;;;2.50;;
16093;SDS011;8151;47.824;12.092;2022-11-22T13:22:14;4.43;;;3.33;;
16093;SDS011;8151;47.824;12.092;2022-11-22T13:24:53;4.20;;;2.73;;
16093;SDS011;8151;47.824;12.092;2022-11-22T13:27:35;5.23;;;2.53;;
16093;SDS011;8151;47.824;12.092;2022-11-22T13:30:15;2.77;;;2.03;;
16093;SDS011;8151;47.824;12.092;2022-11-22T13:32:48;2.53;;;2.10;;
16093;SDS011;8151;47.824;12.092;2022-11-22T13:35:22;3.07;;;2.33;;
16093;SDS011;8151;47.824;12.092;2022-11-22T13:37:56;4.83;;;3.03;;
16093;SDS011;8151;47.824;12.092;2022-11-22T13:40:28;6.60;;;2.73;;
16093;SDS011;8151;47.824;12.092;2022-11-22T13:45:59;2.20;;;1.60;;
16093;SDS011;8151;47.824;12.092;2022-11-22T13:51:53;2.50;;;2.27;;
16093;SDS011;8151;47.824;12.092;2022-11-22T13:57:30;2.97;;;2.37;;
16093;SDS011;8151;47.824;12.092;2022-11-22T14:03:23;4.30;;;2.80;;
16093;SDS011;8151;47.824;12.092;2022-11-22T14:06:14;4.87;;;3.20;;
16093;SDS011;8151;47.824;12.092;2022-11-22T14:11:45;5.00;;;3.13;;
16093;SDS011;8151;47.824;12.092;2022-11-22T14:14:24;5.17;;;3.17;;
16093;SDS011;8151;47.824;12.092;2022-11-22T14:17:02;4.97;;;3.10;;
16093;SDS011;8151;47.824;12.092;2022-11-22T14:19:43;3.90;;;2.37;;
16093;SDS011;8151;47.824;12.092;2022-11-22T14:22:26;5.87;;;3.20;;
16093;SDS011;8151;47.824;12.092;2022-11-22T14:25:17;2.53;;;2.30;;
16093;SDS011;8151;47.824;12.092;2022-11-22T14:28:00;2.63;;;2.23;;
16093;SDS011;8151;47.824;12.092;2022-11-22T14:30:44;4.97;;;3.47;;
16093;SDS011;8151;47.824;12.092;2022-11-22T14:33:16;2.17;;;1.97;;
16093;SDS011;8151;47.824;12.092;2022-11-22T14:38:43;2.70;;;2.23;;
16093;SDS011;8151;47.824;12.092;2022-11-22T14:44:12;2.57;;;1.90;;
16093;SDS011;8151;47.824;12.092;2022-11-22T14:46:45;3.37;;;2.40;;
16093;SDS011;8151;47.824;12.092;2022-11-22T14:49:24;3.97;;;2.40;;
16093;SDS011;8151;47.824;12.092;2022-11-22T14:51:59;4.63;;;2.07;;
16093;SDS011;8151;47.824;12.092;2022-11-22T14:54:32;5.07;;;2.50;;
16093;SDS011;8151;47.824;12.092;2022-11-22T14:57:10;2.20;;;2.00;;
16093;SDS011;8151;47.824;12.092;2022-11-22T14:59:50;4.17;;;1.93;;
16093;SDS011;8151;47.824;12.092;2022-11-22T15:02:51;2.77;;;1.60;;
16093;SDS011;8151;47.824;12.092;2022-11-22T15:06:03;3.03;;;2.73;;
16093;SDS011;8151;47.824;12.092;2022-11-22T15:09:03;6.17;;;2.30;;
16093;SDS011;8151;47.824;12.092;2022-11-22T15:12:12;3.63;;;3.33;;
16093;SDS011;8151;47.824;12.092;2022-11-22T15:18:10;4.30;;;2.20;;
16093;SDS011;8151;47.824;12.092;2022-11-22T15:21:13;3.77;;;2.57;;
16093;SDS011;8151;47.824;12.092;2022-11-22T15:24:07;2.77;;;2.53;;
16093;SDS011;8151;47.824;12.092;2022-11-22T15:27:18;2.93;;;2.40;;
16093;SDS011;8151;47.824;12.092;2022-11-22T15:30:11;3.40;;;2.73;;
16093;SDS011;8151;47.824;12.092;2022-11-22T15:33:01;4.03;;;3.20;;
16093;SDS011;8151;47.824;12.092;2022-11-22T15:35:56;4.17;;;2.87;;
16093;SDS011;8151;47.824;12.092;2022-11-22T15:39:01;5.20;;;2.33;;
16093;SDS011;8151;47.824;12.092;2022-11-22T15:41:49;4.43;;;2.53;;
16093;SDS011;8151;47.824;12.092;2022-11-22T15:44:43;4.57;;;2.67;;
16093;SDS011;8151;47.824;12.092;2022-11-22T15:47:33;3.93;;;2.90;;
16093;SDS011;8151;47.824;12.092;2022-11-22T15:50:24;7.10;;;3.10;;
16093;SDS011;8151;47.824;12.092;2022-11-22T15:53:20;3.63;;;2.53;;
16093;SDS011;8151;47.824;12.092;2022-11-22T15:56:13;4.33;;;3.00;;
16093;SDS011;8151;47.824;12.092;2022-11-22T15:59:07;3.40;;;2.83;;